Avon Lake, Ohio
Current Conditions -  °F | °C
As of 10:51 AM on Saturday 25 Oct 2014 (Local Time) from KCLE Reporting Station
Clear Clear  
Wind Chill: 16°   Ceiling: Unl
Heat Index: 16°   Visibility: 10mi
Dew Point: 11°   Wind: 16mph
Humidity: 70%   Direction: 240°WSW
Pressure: 29.87"   Gusts: 23mph
Location:  41.51°N, 82.02°W
Report Text: KCLE 251451Z 24014G20KT 10SM CLR 16/11 A2987 RMK AO2 SLP114 T01610106 58019
Loading
Personal Weather Stations






























Interactive Weather Map
Tropical Storm Tracking
New forecast layout! Learn more

10-Day Weather Forecast

Advertisements
Track Severe Weather on mobile